PWSweather.com
Personal Weather Stations
Station Observations
SEVANL01
SevillaES 41004

SevillaES 41004

Lat: 37.383633, Lon: -5.985787

Elevation: 19.685

Station Type: Davis Vantage Pro2

www.tiempoensevilla.es

High Low Average
Temperature 65.3°F18.5°C 56.9°F13.8°C 60.0°F15.6°C
Dew Point 61.6°F16.4°C 54.1°F12.3°C 57.6°F14.2°C
Winds 16.0 mph 25.7 kmh Calm Calm 5.0 mph S8.0 kmh S
Wind Gusts 34.0 mph54.7 kmh -- 11.0 mph17.7 kmh
Humidity 95% 81% 92%
Pressure 29.75 in1007.5 mb 29.42 in996.3 mb -
Precipitation 0.35 in8.9 mm - -
Hour Temp Dew Point Humidity Winds Wind Gusts Pressure Precip Precip Rate Daily Precip Total
12:00 AM 57.9°F14.4°C 56.2°F13.4°C 94% 2.6 mph W4.2 kmh W 7.0 mph11.3 kmh 29.75 in1007.5 mb 0.00 in0.0 mm 0.00 in0.0 mm 0.00 in0.0 mm
12:20 AM 57.9°F14.4°C 56.5°F13.6°C 95% 2.4 mph WSW3.9 kmh WSW 7.0 mph11.3 kmh 29.75 in1007.5 mb 0.00 in0.0 mm 0.00 in0.0 mm 0.00 in0.0 mm
12:40 AM 57.9°F14.4°C 56.5°F13.6°C 95% 2.0 mph WSW3.2 kmh WSW 4.0 mph6.4 kmh 29.74 in1007.1 mb 0.00 in0.0 mm 0.00 in0.0 mm 0.00 in0.0 mm
01:00 AM 57.8°F14.3°C 56.4°F13.6°C 95% 1.0 mph WSW1.6 kmh WSW 3.0 mph4.8 kmh 29.74 in1007.1 mb 0.00 in0.0 mm 0.00 in0.0 mm 0.00 in0.0 mm
01:20 AM 57.7°F14.3°C 56.3°F13.5°C 95% 0.2 mph WSW0.3 kmh WSW 2.0 mph3.2 kmh 29.73 in1006.8 mb 0.00 in0.0 mm 0.00 in0.0 mm 0.00 in0.0 mm
01:40 AM 57.7°F14.3°C 56.3°F13.5°C 95% Calm Calm -- 29.72 in1006.4 mb 0.00 in0.0 mm 0.00 in0.0 mm 0.00 in0.0 mm
02:00 AM 57.5°F14.2°C 56.1°F13.4°C 95% 0.5 mph WSW0.8 kmh WSW 3.0 mph4.8 kmh 29.71 in1006.1 mb 0.00 in0.0 mm 0.00 in0.0 mm 0.00 in0.0 mm
02:20 AM 57.4°F14.1°C 56.0°F13.3°C 95% 0.3 mph SSW0.5 kmh SSW 3.0 mph4.8 kmh 29.72 in1006.4 mb 0.00 in0.0 mm 0.00 in0.0 mm 0.00 in0.0 mm
02:40 AM 57.4°F14.1°C 56.0°F13.3°C 95% 0.7 mph SW1.1 kmh SW 2.0 mph3.2 kmh 29.71 in1006.1 mb 0.00 in0.0 mm 0.00 in0.0 mm 0.00 in0.0 mm
03:00 AM 57.4°F14.1°C 56.0°F13.3°C 95% Calm Calm -- 29.71 in1006.1 mb 0.00 in0.0 mm 0.00 in0.0 mm 0.00 in0.0 mm
03:20 AM 57.4°F14.1°C 56.0°F13.3°C 95% Calm Calm -- 29.72 in1006.4 mb 0.00 in0.0 mm 0.00 in0.0 mm 0.00 in0.0 mm
03:40 AM 57.4°F14.1°C 56.0°F13.3°C 95% Calm Calm -- 29.71 in1006.1 mb 0.00 in0.0 mm 0.00 in0.0 mm 0.00 in0.0 mm
04:00 AM 57.2°F14.0°C 55.8°F13.2°C 95% Calm Calm -- 29.71 in1006.1 mb 0.00 in0.0 mm 0.00 in0.0 mm 0.00 in0.0 mm
04:20 AM 57.0°F13.9°C 55.6°F13.1°C 95% Calm Calm -- 29.70 in1005.8 mb 0.00 in0.0 mm 0.00 in0.0 mm 0.00 in0.0 mm
04:40 AM 57.1°F13.9°C 55.7°F13.2°C 95% Calm Calm -- 29.68 in1005.1 mb 0.00 in0.0 mm 0.00 in0.0 mm 0.00 in0.0 mm
05:00 AM 57.1°F13.9°C 55.4°F13.0°C 94% Calm Calm -- 29.69 in1005.4 mb 0.00 in0.0 mm 0.00 in0.0 mm 0.00 in0.0 mm
05:20 AM 56.9°F13.8°C 55.2°F12.9°C 94% Calm Calm -- 29.68 in1005.1 mb 0.00 in0.0 mm 0.00 in0.0 mm 0.00 in0.0 mm
05:40 AM 56.9°F13.8°C 55.2°F12.9°C 94% 1.0 mph N1.6 kmh N 2.0 mph3.2 kmh 29.67 in1004.7 mb 0.00 in0.0 mm 0.00 in0.0 mm 0.00 in0.0 mm
06:00 AM 57.0°F13.9°C 55.3°F12.9°C 94% Calm Calm -- 29.67 in1004.7 mb 0.00 in0.0 mm 0.00 in0.0 mm 0.00 in0.0 mm
06:20 AM 57.1°F13.9°C 55.4°F13.0°C 94% Calm Calm 1.0 mph1.6 kmh 29.67 in1004.7 mb 0.00 in0.0 mm 0.00 in0.0 mm 0.00 in0.0 mm
06:40 AM 57.0°F13.9°C 55.3°F12.9°C 94% 1.0 mph NE1.6 kmh NE 3.0 mph4.8 kmh 29.66 in1004.4 mb 0.01 in0.3 mm 0.03 in0.8 mm 0.01 in0.3 mm
07:00 AM 57.2°F14.0°C 55.5°F13.1°C 94% Calm Calm -- 29.66 in1004.4 mb 0.01 in0.3 mm 0.00 in0.0 mm 0.01 in0.3 mm
07:20 AM 57.1°F13.9°C 55.7°F13.2°C 95% Calm Calm 3.0 mph4.8 kmh 29.64 in1003.7 mb 0.01 in0.3 mm 0.00 in0.0 mm 0.01 in0.3 mm
07:40 AM 57.2°F14.0°C 55.8°F13.2°C 95% 1.1 mph SSE1.8 kmh SSE 5.0 mph8.0 kmh 29.64 in1003.7 mb 0.00 in0.0 mm 0.00 in0.0 mm 0.01 in0.3 mm
08:00 AM 57.4°F14.1°C 56.0°F13.3°C 95% 3.0 mph SSE4.8 kmh SSE 6.0 mph9.7 kmh 29.63 in1003.4 mb 0.00 in0.0 mm 0.00 in0.0 mm 0.01 in0.3 mm
08:20 AM 57.6°F14.2°C 56.2°F13.4°C 95% 2.2 mph S3.5 kmh S 5.0 mph8.0 kmh 29.63 in1003.4 mb 0.00 in0.0 mm 0.00 in0.0 mm 0.01 in0.3 mm
08:40 AM 57.9°F14.4°C 56.5°F13.6°C 95% 1.1 mph S1.8 kmh S 4.0 mph6.4 kmh 29.62 in1003.0 mb 0.00 in0.0 mm 0.00 in0.0 mm 0.01 in0.3 mm
09:00 AM 58.5°F14.7°C 57.1°F13.9°C 95% 3.0 mph S4.8 kmh S 9.0 mph14.5 kmh 29.62 in1003.0 mb 0.01 in0.3 mm 0.02 in0.5 mm 0.02 in0.5 mm
09:20 AM 58.7°F14.8°C 57.3°F14.1°C 95% 3.0 mph SSW4.8 kmh SSW 8.0 mph12.9 kmh 29.62 in1003.0 mb 0.01 in0.3 mm 0.00 in0.0 mm 0.02 in0.5 mm
09:40 AM 59.3°F15.2°C 57.9°F14.4°C 95% 2.9 mph S4.7 kmh S 6.0 mph9.7 kmh 29.61 in1002.7 mb 0.01 in0.3 mm 0.00 in0.0 mm 0.02 in0.5 mm
10:00 AM 59.7°F15.4°C 58.3°F14.6°C 95% 2.1 mph SW3.4 kmh SW 6.0 mph9.7 kmh 29.62 in1003.0 mb 0.00 in0.0 mm 0.00 in0.0 mm 0.02 in0.5 mm
10:20 AM 60.2°F15.7°C 58.8°F14.9°C 95% 3.1 mph SW5.0 kmh SW 8.0 mph12.9 kmh 29.61 in1002.7 mb 0.00 in0.0 mm 0.00 in0.0 mm 0.02 in0.5 mm
10:40 AM 60.7°F15.9°C 59.3°F15.2°C 95% 4.9 mph SW7.9 kmh SW 10.0 mph16.1 kmh 29.60 in1002.4 mb 0.00 in0.0 mm 0.00 in0.0 mm 0.02 in0.5 mm
11:00 AM 61.1°F16.2°C 59.7°F15.4°C 95% 4.1 mph SW6.6 kmh SW 13.0 mph20.9 kmh 29.59 in1002.0 mb 0.01 in0.3 mm 0.02 in0.5 mm 0.02 in0.5 mm
11:20 AM 61.5°F16.4°C 60.1°F15.6°C 95% 6.1 mph SW9.8 kmh SW 18.0 mph29.0 kmh 29.59 in1002.0 mb 0.02 in0.5 mm 0.03 in0.8 mm 0.03 in0.8 mm
11:40 AM 61.8°F16.6°C 60.4°F15.8°C 95% 7.3 mph SW11.7 kmh SW 17.0 mph27.4 kmh 29.58 in1001.7 mb 0.02 in0.5 mm 0.00 in0.0 mm 0.04 in1.0 mm
12:00 PM 62.1°F16.7°C 60.7°F15.9°C 95% 9.1 mph SW14.6 kmh SW 17.0 mph27.4 kmh 29.57 in1001.4 mb 0.05 in1.3 mm 0.05 in1.3 mm 0.07 in1.8 mm
12:20 PM 62.2°F16.8°C 60.8°F16.0°C 95% 9.7 mph SW15.6 kmh SW 25.0 mph40.2 kmh 29.56 in1001.0 mb 0.06 in1.5 mm 0.03 in0.8 mm 0.09 in2.3 mm
12:40 PM 62.8°F17.1°C 61.0°F16.1°C 94% 10.3 mph SW16.6 kmh SW 21.0 mph33.8 kmh 29.54 in1000.3 mb 0.05 in1.3 mm 0.00 in0.0 mm 0.09 in2.3 mm
01:00 PM 63.0°F17.2°C 61.2°F16.2°C 94% 10.4 mph SW16.7 kmh SW 22.0 mph35.4 kmh 29.52 in999.7 mb 0.02 in0.5 mm 0.00 in0.0 mm 0.09 in2.3 mm
01:20 PM 63.2°F17.3°C 61.4°F16.3°C 94% 9.5 mph SW15.3 kmh SW 19.0 mph30.6 kmh 29.51 in999.3 mb 0.01 in0.3 mm 0.00 in0.0 mm 0.09 in2.3 mm
01:40 PM 63.1°F17.3°C 61.0°F16.1°C 93% 10.7 mph SW17.2 kmh SW 24.0 mph38.6 kmh 29.50 in999.0 mb 0.17 in4.3 mm 0.48 in12.2 mm 0.25 in6.4 mm
02:00 PM 63.0°F17.2°C 60.9°F16.1°C 93% 13.1 mph SW21.1 kmh SW 27.0 mph43.5 kmh 29.49 in998.6 mb 0.23 in5.8 mm 0.09 in2.3 mm 0.32 in8.1 mm
02:20 PM 63.2°F17.3°C 61.1°F16.2°C 93% 10.4 mph SW16.7 kmh SW 22.0 mph35.4 kmh 29.47 in998.0 mb 0.24 in6.1 mm 0.03 in0.8 mm 0.34 in8.6 mm
02:40 PM 63.6°F17.6°C 61.2°F16.2°C 92% 9.8 mph SW15.8 kmh SW 23.0 mph37.0 kmh 29.46 in997.6 mb 0.09 in2.3 mm 0.00 in0.0 mm 0.34 in8.6 mm
03:00 PM 64.0°F17.8°C 61.3°F16.3°C 91% 12.2 mph SW19.6 kmh SW 21.0 mph33.8 kmh 29.45 in997.3 mb 0.02 in0.5 mm 0.00 in0.0 mm 0.34 in8.6 mm
03:20 PM 64.6°F18.1°C 61.3°F16.3°C 89% 13.2 mph WSW21.2 kmh WSW 25.0 mph40.2 kmh 29.43 in996.6 mb 0.00 in0.0 mm 0.00 in0.0 mm 0.34 in8.6 mm
03:40 PM 64.9°F18.3°C 61.6°F16.4°C 89% 13.6 mph SW21.9 kmh SW 27.0 mph43.5 kmh 29.43 in996.6 mb 0.00 in0.0 mm 0.00 in0.0 mm 0.34 in8.6 mm
04:00 PM 64.9°F18.3°C 61.3°F16.3°C 88% 14.6 mph SW23.5 kmh SW 33.0 mph53.1 kmh 29.43 in996.6 mb 0.00 in0.0 mm 0.00 in0.0 mm 0.34 in8.6 mm
04:20 PM 65.3°F18.5°C 61.3°F16.3°C 87% 14.7 mph SW23.7 kmh SW 31.0 mph49.9 kmh 29.43 in996.6 mb 0.00 in0.0 mm 0.00 in0.0 mm 0.34 in8.6 mm
04:40 PM 64.8°F18.2°C 61.2°F16.2°C 88% 13.3 mph WSW21.4 kmh WSW 30.0 mph48.3 kmh 29.42 in996.3 mb 0.00 in0.0 mm 0.00 in0.0 mm 0.34 in8.6 mm
05:00 PM 64.9°F18.3°C 61.3°F16.3°C 88% 16.0 mph SW25.7 kmh SW 28.0 mph45.1 kmh 29.42 in996.3 mb 0.00 in0.0 mm 0.00 in0.0 mm 0.34 in8.6 mm
05:20 PM 65.1°F18.4°C 61.5°F16.4°C 88% 14.1 mph WSW22.7 kmh WSW 34.0 mph54.7 kmh 29.44 in997.0 mb 0.00 in0.0 mm 0.00 in0.0 mm 0.34 in8.6 mm
05:40 PM 64.9°F18.3°C 61.3°F16.3°C 88% 13.4 mph WSW21.6 kmh WSW 27.0 mph43.5 kmh 29.45 in997.3 mb 0.00 in0.0 mm 0.00 in0.0 mm 0.34 in8.6 mm
06:00 PM 64.4°F18.0°C 61.4°F16.3°C 90% 12.1 mph WSW19.5 kmh WSW 21.0 mph33.8 kmh 29.46 in997.6 mb 0.01 in0.3 mm 0.02 in0.5 mm 0.35 in8.9 mm
06:20 PM 63.5°F17.5°C 59.6°F15.3°C 87% 5.6 mph W9.0 kmh W 14.0 mph22.5 kmh 29.47 in998.0 mb 0.02 in0.5 mm 0.03 in0.8 mm 0.35 in8.9 mm
06:40 PM 63.1°F17.3°C 58.5°F14.7°C 85% 4.8 mph WNW7.7 kmh WNW 11.0 mph17.7 kmh 29.48 in998.3 mb 0.02 in0.5 mm 0.00 in0.0 mm 0.35 in8.9 mm
07:00 PM 62.5°F16.9°C 56.9°F13.8°C 82% 5.1 mph W8.2 kmh W 12.0 mph19.3 kmh 29.49 in998.6 mb 0.01 in0.3 mm 0.00 in0.0 mm 0.35 in8.9 mm
07:20 PM 62.3°F16.8°C 56.7°F13.7°C 82% 5.7 mph WSW9.2 kmh WSW 11.0 mph17.7 kmh 29.50 in999.0 mb 0.00 in0.0 mm 0.00 in0.0 mm 0.35 in8.9 mm
07:40 PM 61.5°F16.4°C 56.6°F13.7°C 84% 4.5 mph WSW7.2 kmh WSW 10.0 mph16.1 kmh 29.52 in999.7 mb 0.00 in0.0 mm 0.00 in0.0 mm 0.35 in8.9 mm
08:00 PM 61.4°F16.3°C 55.5°F13.1°C 81% 5.7 mph WSW9.2 kmh WSW 11.0 mph17.7 kmh 29.52 in999.7 mb 0.00 in0.0 mm 0.00 in0.0 mm 0.35 in8.9 mm
08:20 PM 60.8°F16.0°C 55.3°F12.9°C 82% 4.9 mph WSW7.9 kmh WSW 12.0 mph19.3 kmh 29.53 in1000.0 mb 0.00 in0.0 mm 0.00 in0.0 mm 0.35 in8.9 mm
08:40 PM 60.2°F15.7°C 55.0°F12.8°C 83% 5.0 mph SW8.0 kmh SW 11.0 mph17.7 kmh 29.54 in1000.3 mb 0.00 in0.0 mm 0.00 in0.0 mm 0.35 in8.9 mm
09:00 PM 59.7°F15.4°C 54.9°F12.7°C 84% 4.0 mph SW6.4 kmh SW 10.0 mph16.1 kmh 29.55 in1000.7 mb 0.00 in0.0 mm 0.00 in0.0 mm 0.35 in8.9 mm
09:20 PM 58.6°F14.8°C 54.7°F12.6°C 87% 4.0 mph SW6.4 kmh SW 10.0 mph16.1 kmh 29.55 in1000.7 mb 0.00 in0.0 mm 0.00 in0.0 mm 0.35 in8.9 mm
09:40 PM 58.3°F14.6°C 54.8°F12.7°C 88% 5.0 mph SW8.0 kmh SW 11.0 mph17.7 kmh 29.56 in1001.0 mb 0.00 in0.0 mm 0.00 in0.0 mm 0.35 in8.9 mm
10:00 PM 58.3°F14.6°C 54.8°F12.7°C 88% 5.0 mph SW8.0 kmh SW 9.0 mph14.5 kmh 29.56 in1001.0 mb 0.00 in0.0 mm 0.00 in0.0 mm 0.35 in8.9 mm
10:20 PM 57.9°F14.4°C 54.4°F12.4°C 88% 3.1 mph SW5.0 kmh SW 8.0 mph12.9 kmh 29.57 in1001.4 mb 0.00 in0.0 mm 0.00 in0.0 mm 0.35 in8.9 mm
10:40 PM 57.6°F14.2°C 54.4°F12.4°C 89% 3.0 mph SW4.8 kmh SW 7.0 mph11.3 kmh 29.57 in1001.4 mb 0.00 in0.0 mm 0.00 in0.0 mm 0.35 in8.9 mm
11:00 PM 57.4°F14.1°C 54.2°F12.3°C 89% 3.0 mph SW4.8 kmh SW 7.0 mph11.3 kmh 29.58 in1001.7 mb 0.00 in0.0 mm 0.00 in0.0 mm 0.35 in8.9 mm
11:20 PM 57.3°F14.1°C 54.1°F12.3°C 89% 4.0 mph SW6.4 kmh SW 8.0 mph12.9 kmh 29.58 in1001.7 mb 0.00 in0.0 mm 0.00 in0.0 mm 0.35 in8.9 mm
11:40 PM 57.4°F14.1°C 54.2°F12.3°C 89% 3.3 mph SW5.3 kmh SW 11.0 mph17.7 kmh 29.59 in1002.0 mb 0.00 in0.0 mm 0.00 in0.0 mm 0.35 in8.9 mm